Time;durP1;ratioP1;P1;durP2;ratioP2;P2;SDS_P1;SDS_P2;PMS_P1;PMS_P2;Temp;Humidity;BMP_temperature;BMP_pressure;BME280_temperature;BME280_humidity;BME280_pressure;Samples;Min_cycle;Max_cycle;Signal;HPM_P1;HPM_P2
2021/12/31 00:00:08;;;;;;;2.53;0.35;;;;;;;;;;5137311;27;20449;-75
2021/12/31 00:02:35;;;;;;;1.95;0.40;;;;;;;;;;5156065;27;20026;-75
2021/12/31 00:05:03;;;;;;;4.40;0.43;;;;;;;;;;5136968;27;20026;-75
2021/12/31 00:07:30;;;;;;;1.83;0.35;;;;;;;;;;5155998;27;20023;-75
2021/12/31 00:10:00;;;;;;;1.95;0.40;;;;;;;;;;5155851;27;20023;-75
2021/12/31 00:12:28;;;;;;;2.20;0.30;;;;;;;;;;5155845;27;20038;-75
2021/12/31 00:14:55;;;;;;;3.35;0.40;;;;;;;;;;5136801;27;20031;-75
2021/12/31 00:17:22;;;;;;;1.88;0.40;;;;;;;;;;5155772;27;20023;-76
2021/12/31 00:19:58;;;;;;;2.03;0.40;;;;;;;;;;5137241;27;20030;-75
2021/12/31 00:22:50;;;;;;;1.83;0.32;;;;;;;;;;5136838;27;20026;-76
2021/12/31 00:25:13;;;;;;;3.78;0.32;;;;;;;;;;5154899;27;20035;-76
2021/12/31 00:27:40;;;;;;;3.15;0.45;;;;;;;;;;5136667;27;20022;-75
2021/12/31 00:30:08;;;;;;;3.80;0.52;;;;;;;;;;5136708;27;20406;-75
2021/12/31 00:32:35;;;;;;;2.22;0.30;;;;;;;;;;5155368;27;20103;-75
2021/12/31 00:35:02;;;;;;;2.67;0.32;;;;;;;;;;5136679;27;20027;-75
2021/12/31 00:37:31;;;;;;;2.10;0.35;;;;;;;;;;5155249;27;20018;-75
2021/12/31 00:39:58;;;;;;;2.10;0.43;;;;;;;;;;5155138;27;20046;-75
2021/12/31 00:42:25;;;;;;;3.40;0.40;;;;;;;;;;5136392;27;20376;-75
2021/12/31 00:44:53;;;;;;;1.65;0.35;;;;;;;;;;5136325;27;20145;-77
2021/12/31 00:47:20;;;;;;;1.42;0.35;;;;;;;;;;5154993;27;20078;-77
2021/12/31 00:49:47;;;;;;;1.65;0.40;;;;;;;;;;5136298;27;20450;-76
2021/12/31 00:52:15;;;;;;;1.45;0.28;;;;;;;;;;5136347;27;20139;-74
2021/12/31 00:54:43;;;;;;;1.38;0.30;;;;;;;;;;5154801;27;20035;-75
2021/12/31 00:57:11;;;;;;;2.55;0.20;;;;;;;;;;5154893;27;20026;-75
2021/12/31 00:59:40;;;;;;;1.30;0.30;;;;;;;;;;5154994;27;20048;-75
2021/12/31 01:02:11;;;;;;;1.23;0.20;;;;;;;;;;5154927;27;20391;-74
2021/12/31 01:04:39;;;;;;;1.05;0.43;;;;;;;;;;5154803;27;20018;-75
2021/12/31 01:07:06;;;;;;;1.67;0.30;;;;;;;;;;5154825;27;20019;-74
2021/12/31 01:09:33;;;;;;;2.70;0.30;;;;;;;;;;5154960;27;20049;-74
2021/12/31 01:12:01;;;;;;;0.90;0.30;;;;;;;;;;5154706;27;20483;-74
2021/12/31 01:14:38;;;;;;;1.73;0.20;;;;;;;;;;5154676;27;20014;-74
2021/12/31 01:17:09;;;;;;;0.73;0.22;;;;;;;;;;5154401;27;20071;-75
2021/12/31 01:19:46;;;;;;;1.77;0.35;;;;;;;;;;5136040;27;20109;-74
2021/12/31 01:22:17;;;;;;;1.52;0.40;;;;;;;;;;5135923;27;20427;-74
2021/12/31 01:24:44;;;;;;;2.83;0.30;;;;;;;;;;5154590;27;20093;-74
2021/12/31 01:27:12;;;;;;;0.95;0.35;;;;;;;;;;5154526;27;20015;-75
2021/12/31 01:29:39;;;;;;;1.58;0.22;;;;;;;;;;5154771;27;20467;-76
2021/12/31 01:32:06;;;;;;;1.17;0.20;;;;;;;;;;5154931;27;20026;-76
2021/12/31 01:34:34;;;;;;;0.90;0.30;;;;;;;;;;5135589;27;20026;-75
2021/12/31 01:37:01;;;;;;;2.05;0.45;;;;;;;;;;5135885;27;20048;-76
2021/12/31 01:39:28;;;;;;;2.05;0.35;;;;;;;;;;5154668;27;20034;-76
2021/12/31 01:41:58;;;;;;;0.95;0.17;;;;;;;;;;5154281;27;20029;-77
2021/12/31 01:44:35;;;;;;;0.82;0.35;;;;;;;;;;5154608;27;20105;-76
2021/12/31 01:47:08;;;;;;;2.80;0.25;;;;;;;;;;5154505;27;20023;-76
2021/12/31 01:49:39;;;;;;;2.72;0.43;;;;;;;;;;5154545;27;20049;-76
2021/12/31 01:52:07;;;;;;;2.13;0.30;;;;;;;;;;5135480;27;20035;-75
2021/12/31 01:54:35;;;;;;;1.05;0.30;;;;;;;;;;5155018;27;20168;-76
2021/12/31 01:57:04;;;;;;;3.67;0.40;;;;;;;;;;5158477;27;20197;-76
2021/12/31 01:59:31;;;;;;;1.75;0.40;;;;;;;;;;5158913;27;20027;-75
2021/12/31 02:01:58;;;;;;;3.60;0.50;;;;;;;;;;5140027;27;20027;-76
2021/12/31 02:04:25;;;;;;;1.58;0.35;;;;;;;;;;5139588;27;20048;-76
2021/12/31 02:06:53;;;;;;;2.40;0.30;;;;;;;;;;5158153;27;20019;-76
2021/12/31 02:09:20;;;;;;;1.95;0.30;;;;;;;;;;5158181;27;20067;-76
2021/12/31 02:11:47;;;;;;;4.88;0.45;;;;;;;;;;5158232;27;20027;-77
2021/12/31 02:14:14;;;;;;;3.50;0.30;;;;;;;;;;5139292;27;20115;-77
2021/12/31 02:16:42;;;;;;;1.55;0.25;;;;;;;;;;5158219;27;20018;-76
2021/12/31 02:19:25;;;;;;;1.55;0.30;;;;;;;;;;5158061;27;20022;-76
2021/12/31 02:21:52;;;;;;;6.13;0.52;;;;;;;;;;5139790;27;20026;-76
2021/12/31 02:24:21;;;;;;;1.80;0.40;;;;;;;;;;5139094;27;20027;-76
2021/12/31 02:26:49;;;;;;;1.83;0.30;;;;;;;;;;5158051;27;20050;-76
2021/12/31 02:29:17;;;;;;;2.03;0.30;;;;;;;;;;5139436;27;20042;-76
2021/12/31 02:31:44;;;;;;;3.95;0.65;;;;;;;;;;5139323;27;20019;-76
2021/12/31 02:34:12;;;;;;;2.28;0.30;;;;;;;;;;5139005;27;20025;-77
2021/12/31 02:36:39;;;;;;;1.88;0.28;;;;;;;;;;5157848;27;20031;-76
2021/12/31 02:39:06;;;;;;;1.27;0.20;;;;;;;;;;5157784;27;20023;-77
2021/12/31 02:41:33;;;;;;;2.03;0.40;;;;;;;;;;5158045;27;20026;-77
2021/12/31 02:44:00;;;;;;;1.80;0.38;;;;;;;;;;5157515;27;20075;-76
2021/12/31 02:46:28;;;;;;;2.40;0.30;;;;;;;;;;5139043;27;20054;-77
2021/12/31 02:48:56;;;;;;;1.98;0.32;;;;;;;;;;5138684;27;20026;-77
2021/12/31 02:51:27;;;;;;;1.40;0.20;;;;;;;;;;5157880;27;20060;-78
2021/12/31 02:53:56;;;;;;;3.00;0.40;;;;;;;;;;5138407;27;20448;-78
2021/12/31 02:56:24;;;;;;;1.92;0.50;;;;;;;;;;5139169;27;20506;-74
2021/12/31 02:58:51;;;;;;;2.53;0.40;;;;;;;;;;5139076;27;20019;-75
2021/12/31 03:01:19;;;;;;;1.80;0.40;;;;;;;;;;5138562;27;20372;-75
2021/12/31 03:03:46;;;;;;;2.90;0.35;;;;;;;;;;5157607;27;20027;-76
2021/12/31 03:06:13;;;;;;;2.08;0.30;;;;;;;;;;5137453;27;20030;-75
2021/12/31 03:08:42;;;;;;;0.60;0.10;;;;;;;;;;5157225;27;20018;-76
2021/12/31 03:11:09;;;;;;;1.92;0.60;;;;;;;;;;5138255;27;20023;-76
2021/12/31 03:13:38;;;;;;;1.92;0.32;;;;;;;;;;5157177;27;20043;-76
2021/12/31 03:16:07;;;;;;;2.55;0.35;;;;;;;;;;5157329;27;20015;-76
2021/12/31 03:18:34;;;;;;;4.15;0.30;;;;;;;;;;5138599;27;20052;-76
2021/12/31 03:21:08;;;;;;;3.38;0.40;;;;;;;;;;5156941;27;20019;-77
2021/12/31 03:23:35;;;;;;;1.98;0.40;;;;;;;;;;5157164;27;20025;-76
2021/12/31 03:26:03;;;;;;;2.42;0.63;;;;;;;;;;5137815;27;20023;-76
2021/12/31 03:28:30;;;;;;;3.60;0.43;;;;;;;;;;5157135;27;20015;-77
2021/12/31 03:30:57;;;;;;;2.70;0.30;;;;;;;;;;5138097;27;20029;-76
2021/12/31 03:33:24;;;;;;;2.08;0.43;;;;;;;;;;5157047;27;20158;-76
2021/12/31 03:35:51;;;;;;;2.58;0.28;;;;;;;;;;5137944;27;20385;-76
2021/12/31 03:38:18;;;;;;;1.67;0.30;;;;;;;;;;5157012;27;20042;-76
2021/12/31 03:40:49;;;;;;;2.60;0.60;;;;;;;;;;5156608;27;20041;-76
2021/12/31 03:43:16;;;;;;;2.58;0.40;;;;;;;;;;5156797;27;20356;-76
2021/12/31 03:45:46;;;;;;;3.13;0.38;;;;;;;;;;5156595;27;20089;-76
2021/12/31 03:48:13;;;;;;;2.23;0.40;;;;;;;;;;5156744;27;20098;-77
2021/12/31 03:50:40;;;;;;;3.47;0.60;;;;;;;;;;5156533;27;20491;-77
2021/12/31 03:53:07;;;;;;;1.70;0.30;;;;;;;;;;5156515;27;20159;-77
2021/12/31 03:55:34;;;;;;;5.18;0.80;;;;;;;;;;5156381;27;20394;-78
2021/12/31 03:58:01;;;;;;;4.30;0.60;;;;;;;;;;5156290;27;20026;-75
2021/12/31 04:00:29;;;;;;;1.90;0.20;;;;;;;;;;5156419;27;20352;-76
2021/12/31 04:03:05;;;;;;;4.20;0.50;;;;;;;;;;5156462;27;20033;-76
2021/12/31 04:05:32;;;;;;;3.00;0.50;;;;;;;;;;5155863;27;20030;-76
2021/12/31 04:07:59;;;;;;;2.25;0.57;;;;;;;;;;5156370;27;20374;-76
2021/12/31 04:10:28;;;;;;;2.78;0.77;;;;;;;;;;5155752;27;20014;-76
2021/12/31 04:12:56;;;;;;;2.28;0.45;;;;;;;;;;5156112;27;20019;-76
2021/12/31 04:15:23;;;;;;;2.08;0.52;;;;;;;;;;5137405;27;20019;-77
2021/12/31 04:17:50;;;;;;;2.80;0.43;;;;;;;;;;5155579;27;20100;-76
2021/12/31 04:23:28;;;;;;;4.28;0.63;;;;;;;;;;5071490;28;20108;-76
2021/12/31 04:25:56;;;;;;;3.33;0.73;;;;;;;;;;5125248;27;20447;-76
2021/12/31 04:28:24;;;;;;;3.08;0.40;;;;;;;;;;5155636;27;20018;-76
2021/12/31 04:30:51;;;;;;;4.20;0.60;;;;;;;;;;5155755;27;20022;-76
2021/12/31 04:33:18;;;;;;;4.90;0.77;;;;;;;;;;5155844;27;20389;-76
2021/12/31 04:35:46;;;;;;;5.75;0.60;;;;;;;;;;5155535;27;20023;-76
2021/12/31 04:38:13;;;;;;;4.78;0.60;;;;;;;;;;5155563;27;20390;-77
2021/12/31 04:40:40;;;;;;;3.10;0.40;;;;;;;;;;5155421;27;20080;-75
2021/12/31 04:43:07;;;;;;;6.03;0.60;;;;;;;;;;5136638;27;20046;-76
2021/12/31 04:45:35;;;;;;;4.38;0.63;;;;;;;;;;5136447;27;20516;-76
2021/12/31 04:48:02;;;;;;;3.38;0.60;;;;;;;;;;5136714;27;20059;-76
2021/12/31 04:50:29;;;;;;;3.75;0.60;;;;;;;;;;5155309;27;20019;-76
2021/12/31 04:52:56;;;;;;;4.65;0.45;;;;;;;;;;5154904;27;20035;-76
2021/12/31 04:55:23;;;;;;;3.30;0.77;;;;;;;;;;5136303;27;20023;-76
2021/12/31 04:57:53;;;;;;;3.58;0.70;;;;;;;;;;5154805;27;20121;-75
2021/12/31 05:00:21;;;;;;;3.78;0.50;;;;;;;;;;5136210;27;20026;-76
2021/12/31 05:02:48;;;;;;;2.65;0.70;;;;;;;;;;5155202;27;20557;-76
2021/12/31 05:05:15;;;;;;;3.60;0.60;;;;;;;;;;5154843;27;20056;-76
2021/12/31 05:07:42;;;;;;;3.42;0.60;;;;;;;;;;5155009;27;20494;-75
2021/12/31 05:10:10;;;;;;;3.40;0.65;;;;;;;;;;5155069;27;20017;-76
2021/12/31 05:12:38;;;;;;;1.63;0.30;;;;;;;;;;5136290;27;20079;-76
2021/12/31 05:15:07;;;;;;;6.10;0.65;;;;;;;;;;5155043;27;20050;-77
2021/12/31 05:17:35;;;;;;;4.40;0.70;;;;;;;;;;5154825;27;20442;-76
2021/12/31 05:20:02;;;;;;;3.80;0.73;;;;;;;;;;5154870;27;20030;-76
2021/12/31 05:22:29;;;;;;;3.55;0.60;;;;;;;;;;5154844;27;20522;-76
2021/12/31 05:24:56;;;;;;;2.97;0.50;;;;;;;;;;5135688;27;20034;-76
2021/12/31 05:27:23;;;;;;;4.30;0.85;;;;;;;;;;5154748;27;20030;-76
2021/12/31 05:29:51;;;;;;;3.85;0.80;;;;;;;;;;5153996;27;20026;-76
2021/12/31 05:32:18;;;;;;;3.80;0.80;;;;;;;;;;5136047;27;20023;-77
2021/12/31 05:34:45;;;;;;;3.75;0.70;;;;;;;;;;5154651;27;20053;-76
2021/12/31 05:37:12;;;;;;;3.17;0.60;;;;;;;;;;5136012;27;20372;-76
2021/12/31 05:39:39;;;;;;;4.07;0.70;;;;;;;;;;5135808;27;20015;-76
2021/12/31 05:42:06;;;;;;;3.13;0.50;;;;;;;;;;5135694;27;20015;-76
2021/12/31 05:44:34;;;;;;;5.00;0.93;;;;;;;;;;5154569;27;20098;-76
2021/12/31 05:47:01;;;;;;;3.65;1.00;;;;;;;;;;5136173;27;20022;-75
2021/12/31 05:49:28;;;;;;;6.70;1.00;;;;;;;;;;5154517;27;20083;-77
2021/12/31 05:51:55;;;;;;;3.10;0.77;;;;;;;;;;5135708;27;20080;-77
2021/12/31 05:54:23;;;;;;;5.50;0.90;;;;;;;;;;5154213;27;20042;-76
2021/12/31 05:56:51;;;;;;;4.70;0.85;;;;;;;;;;5135977;27;20107;-77
2021/12/31 05:59:18;;;;;;;5.28;1.08;;;;;;;;;;5154524;27;20046;-78
2021/12/31 06:01:45;;;;;;;4.70;0.75;;;;;;;;;;5135999;27;20435;-78
2021/12/31 06:04:13;;;;;;;5.32;0.68;;;;;;;;;;5136115;27;20023;-78
2021/12/31 06:06:40;;;;;;;5.00;0.73;;;;;;;;;;5154841;27;20391;-77
2021/12/31 06:09:07;;;;;;;3.65;0.60;;;;;;;;;;5154636;27;20026;-77
2021/12/31 06:11:35;;;;;;;4.13;0.80;;;;;;;;;;5154487;27;20018;-77
2021/12/31 06:14:04;;;;;;;6.38;1.10;;;;;;;;;;5154798;27;20031;-77
2021/12/31 06:16:37;;;;;;;7.13;1.05;;;;;;;;;;5154783;27;20094;-77
2021/12/31 06:19:07;;;;;;;5.05;1.10;;;;;;;;;;5154736;27;20019;-77
2021/12/31 06:21:35;;;;;;;7.80;1.00;;;;;;;;;;5154578;27;20022;-76
2021/12/31 06:24:02;;;;;;;4.13;0.60;;;;;;;;;;5154562;27;20170;-77
2021/12/31 06:26:30;;;;;;;4.63;0.63;;;;;;;;;;5154289;27;20535;-77
2021/12/31 06:28:57;;;;;;;5.07;1.00;;;;;;;;;;5154616;27;20068;-77
2021/12/31 06:31:24;;;;;;;3.15;0.60;;;;;;;;;;5135338;27;20075;-77
2021/12/31 06:33:52;;;;;;;6.55;0.70;;;;;;;;;;5135511;27;20019;-77
2021/12/31 06:36:19;;;;;;;4.25;0.90;;;;;;;;;;5154382;27;20079;-77
2021/12/31 06:38:46;;;;;;;3.33;0.90;;;;;;;;;;5154535;27;20535;-77
2021/12/31 06:41:16;;;;;;;2.17;0.60;;;;;;;;;;5155985;27;20086;-77
2021/12/31 06:43:43;;;;;;;5.15;0.70;;;;;;;;;;5139468;27;20107;-77
2021/12/31 06:46:11;;;;;;;4.38;0.52;;;;;;;;;;5139306;27;20106;-77
2021/12/31 06:48:38;;;;;;;3.65;0.82;;;;;;;;;;5158013;27;20043;-77
2021/12/31 06:51:05;;;;;;;3.85;0.88;;;;;;;;;;5138838;27;20042;-77
2021/12/31 06:53:32;;;;;;;4.50;1.00;;;;;;;;;;5157646;27;20513;-76
2021/12/31 06:55:59;;;;;;;3.88;0.70;;;;;;;;;;5138602;27;20031;-77
2021/12/31 06:58:27;;;;;;;4.32;0.68;;;;;;;;;;5157703;27;20098;-76
2021/12/31 07:00:54;;;;;;;2.75;0.60;;;;;;;;;;5157574;27;20486;-77
2021/12/31 07:03:21;;;;;;;3.85;0.60;;;;;;;;;;5157612;27;20031;-77
2021/12/31 07:05:48;;;;;;;5.35;0.70;;;;;;;;;;5138781;27;20034;-78
2021/12/31 07:08:15;;;;;;;6.40;1.00;;;;;;;;;;5138299;27;20075;-74
2021/12/31 07:10:42;;;;;;;5.07;0.98;;;;;;;;;;5156942;27;20071;-74
2021/12/31 07:13:12;;;;;;;2.90;0.75;;;;;;;;;;5138054;27;20483;-74
2021/12/31 07:15:40;;;;;;;4.07;0.75;;;;;;;;;;5138307;27;20033;-74
2021/12/31 07:18:08;;;;;;;4.18;0.75;;;;;;;;;;5156939;27;20098;-74
2021/12/31 07:20:35;;;;;;;3.85;0.70;;;;;;;;;;5156646;27;20387;-74
2021/12/31 07:23:06;;;;;;;5.13;1.20;;;;;;;;;;5156723;27;20015;-74
2021/12/31 07:25:34;;;;;;;4.28;1.10;;;;;;;;;;5137833;27;20022;-73
2021/12/31 07:28:02;;;;;;;6.10;1.50;;;;;;;;;;5156831;27;20117;-74
2021/12/31 07:30:29;;;;;;;5.25;0.80;;;;;;;;;;5137799;27;20436;-74
2021/12/31 07:32:56;;;;;;;4.57;0.90;;;;;;;;;;5156570;27;20094;-74
2021/12/31 07:35:24;;;;;;;3.28;0.70;;;;;;;;;;5156562;27;20158;-74
2021/12/31 07:37:56;;;;;;;2.42;0.63;;;;;;;;;;5156708;27;20428;-74
2021/12/31 07:40:27;;;;;;;5.05;1.08;;;;;;;;;;5138103;27;20030;-73
2021/12/31 07:42:55;;;;;;;4.65;0.80;;;;;;;;;;5137511;27;20033;-74
2021/12/31 07:45:22;;;;;;;5.10;0.85;;;;;;;;;;5137622;27;20050;-73
2021/12/31 07:47:49;;;;;;;5.53;0.90;;;;;;;;;;5156365;27;20026;-74
2021/12/31 07:50:16;;;;;;;4.00;0.75;;;;;;;;;;5137475;27;20102;-73
2021/12/31 07:52:43;;;;;;;5.47;0.85;;;;;;;;;;5155143;27;20018;-74
2021/12/31 07:55:11;;;;;;;4.55;0.98;;;;;;;;;;5156430;27;20049;-75
2021/12/31 07:57:38;;;;;;;4.57;1.10;;;;;;;;;;5137628;27;20022;-75
2021/12/31 08:00:06;;;;;;;6.07;1.50;;;;;;;;;;5137191;27;20521;-73
2021/12/31 08:02:33;;;;;;;4.28;1.02;;;;;;;;;;5137002;27;20018;-73
2021/12/31 08:05:01;;;;;;;6.32;1.05;;;;;;;;;;5155983;27;20022;-74
2021/12/31 08:07:28;;;;;;;5.55;1.00;;;;;;;;;;5156025;27;20044;-73
2021/12/31 08:09:55;;;;;;;7.60;0.90;;;;;;;;;;5155827;27;20038;-74
2021/12/31 08:12:22;;;;;;;9.10;0.93;;;;;;;;;;5136870;27;20089;-73
2021/12/31 08:14:50;;;;;;;6.63;0.75;;;;;;;;;;5137036;27;20014;-74
2021/12/31 08:17:17;;;;;;;3.53;0.52;;;;;;;;;;5155761;27;20023;-73
2021/12/31 08:19:44;;;;;;;5.95;0.98;;;;;;;;;;5155723;27;20019;-73
2021/12/31 08:22:11;;;;;;;4.63;0.95;;;;;;;;;;5136712;27;20550;-73
2021/12/31 08:24:39;;;;;;;7.40;0.80;;;;;;;;;;5137105;27;20015;-74
2021/12/31 08:27:06;;;;;;;5.30;1.23;;;;;;;;;;5136660;27;20491;-74
2021/12/31 08:29:33;;;;;;;9.32;1.48;;;;;;;;;;5137056;27;20022;-74
2021/12/31 08:32:00;;;;;;;6.13;1.45;;;;;;;;;;5136495;27;20023;-74
2021/12/31 08:34:27;;;;;;;7.85;1.20;;;;;;;;;;5155302;27;20098;-74
2021/12/31 08:36:54;;;;;;;6.25;1.10;;;;;;;;;;5155267;27;20483;-73
2021/12/31 08:39:22;;;;;;;7.57;0.90;;;;;;;;;;5155304;27;20067;-74
2021/12/31 08:41:49;;;;;;;8.85;1.42;;;;;;;;;;5155233;27;20533;-73
2021/12/31 08:44:16;;;;;;;6.40;1.10;;;;;;;;;;5136423;27;20047;-74
2021/12/31 08:46:43;;;;;;;6.22;1.55;;;;;;;;;;5155258;27;20031;-74
2021/12/31 08:49:11;;;;;;;7.95;1.58;;;;;;;;;;5155213;27;20094;-74
2021/12/31 08:51:38;;;;;;;8.57;1.20;;;;;;;;;;5155261;27;20029;-74
2021/12/31 08:54:05;;;;;;;8.90;2.03;;;;;;;;;;5136434;27;20050;-74
2021/12/31 08:56:32;;;;;;;8.02;1.25;;;;;;;;;;5155166;27;20070;-74
2021/12/31 08:58:59;;;;;;;8.00;1.17;;;;;;;;;;5154999;27;20429;-74
2021/12/31 09:01:27;;;;;;;8.48;1.35;;;;;;;;;;5154973;27;20023;-74
2021/12/31 09:03:54;;;;;;;5.65;1.27;;;;;;;;;;5154953;27;20031;-74
2021/12/31 09:06:21;;;;;;;9.07;1.42;;;;;;;;;;5154832;27;20502;-74
2021/12/31 09:08:49;;;;;;;10.68;1.48;;;;;;;;;;5135943;27;20492;-74
2021/12/31 09:11:17;;;;;;;7.13;1.30;;;;;;;;;;5154695;27;20440;-74
2021/12/31 09:13:46;;;;;;;8.18;1.20;;;;;;;;;;5136239;27;20053;-74
2021/12/31 09:16:14;;;;;;;6.55;1.25;;;;;;;;;;5136299;27;20463;-74
2021/12/31 09:18:41;;;;;;;7.93;1.50;;;;;;;;;;5154683;27;20023;-75
2021/12/31 09:21:08;;;;;;;8.88;1.50;;;;;;;;;;5136027;27;20515;-75
2021/12/31 09:23:35;;;;;;;7.90;1.15;;;;;;;;;;5136025;27;20037;-74
2021/12/31 09:26:02;;;;;;;5.38;0.98;;;;;;;;;;5135754;27;20095;-75
2021/12/31 09:28:29;;;;;;;9.05;2.08;;;;;;;;;;5154599;27;20433;-75
2021/12/31 09:31:00;;;;;;;7.72;1.55;;;;;;;;;;5154742;27;20030;-74
2021/12/31 09:33:28;;;;;;;8.45;1.98;;;;;;;;;;5135756;27;20022;-74
2021/12/31 09:35:56;;;;;;;6.75;0.93;;;;;;;;;;5154632;27;20023;-73
2021/12/31 09:38:23;;;;;;;5.63;0.90;;;;;;;;;;5154594;27;20061;-74
2021/12/31 09:40:50;;;;;;;6.32;1.23;;;;;;;;;;5154498;27;20424;-74
2021/12/31 09:43:19;;;;;;;8.32;1.90;;;;;;;;;;5135952;27;20027;-74
2021/12/31 09:45:49;;;;;;;9.45;1.23;;;;;;;;;;5154522;27;20071;-74
2021/12/31 09:48:18;;;;;;;7.05;1.08;;;;;;;;;;5135676;27;20042;-74
2021/12/31 09:50:47;;;;;;;8.07;1.42;;;;;;;;;;5135534;27;20054;-74
2021/12/31 09:53:15;;;;;;;8.85;1.27;;;;;;;;;;5154334;27;20057;-74
2021/12/31 09:55:46;;;;;;;7.85;1.23;;;;;;;;;;5154421;27;20045;-74
2021/12/31 09:58:15;;;;;;;6.68;1.40;;;;;;;;;;5154456;27;20098;-75
2021/12/31 10:00:49;;;;;;;10.95;1.75;;;;;;;;;;5154403;27;20491;-75
2021/12/31 10:03:16;;;;;;;8.32;1.33;;;;;;;;;;5135470;27;20027;-75
2021/12/31 10:05:43;;;;;;;7.80;1.10;;;;;;;;;;5135497;27;20483;-74
2021/12/31 10:08:14;;;;;;;9.07;1.50;;;;;;;;;;5154363;27;20491;-74
2021/12/31 10:10:41;;;;;;;7.72;1.35;;;;;;;;;;5135391;27;20019;-72
2021/12/31 10:13:08;;;;;;;10.10;1.30;;;;;;;;;;5135729;27;20053;-74
2021/12/31 10:15:42;;;;;;;7.93;1.33;;;;;;;;;;5136164;27;20026;-75
2021/12/31 10:18:13;;;;;;;6.38;1.35;;;;;;;;;;5158385;27;20023;-73
2021/12/31 10:20:52;;;;;;;7.07;1.00;;;;;;;;;;5158428;27;20018;-73
2021/12/31 10:23:19;;;;;;;7.32;1.40;;;;;;;;;;5158284;27;20030;-73
2021/12/31 10:25:47;;;;;;;6.25;1.35;;;;;;;;;;5139370;27;20050;-73
2021/12/31 10:28:17;;;;;;;8.52;1.60;;;;;;;;;;5139222;27;20019;-74
2021/12/31 10:30:45;;;;;;;9.85;1.65;;;;;;;;;;5158113;27;20019;-75
2021/12/31 10:33:12;;;;;;;8.15;1.25;;;;;;;;;;5158118;27;20015;-74
2021/12/31 10:35:43;;;;;;;8.32;1.70;;;;;;;;;;5157988;27;20018;-74
2021/12/31 10:38:14;;;;;;;10.65;1.70;;;;;;;;;;5139371;27;20033;-73
2021/12/31 10:40:40;;;;;;;;;;;;;;;;;;5139382;27;20026;-73
2021/12/31 10:43:10;;;;;;;11.38;1.67;;;;;;;;;;5157936;27;19903;-74
2021/12/31 10:45:38;;;;;;;6.03;1.73;;;;;;;;;;5157749;27;20023;-75
2021/12/31 10:48:06;;;;;;;11.27;1.40;;;;;;;;;;5157639;27;20019;-75
2021/12/31 10:50:35;;;;;;;9.05;2.28;;;;;;;;;;5138755;27;20023;-75
2021/12/31 10:53:09;;;;;;;8.80;1.77;;;;;;;;;;5157514;27;20100;-75
2021/12/31 10:55:40;;;;;;;9.55;1.67;;;;;;;;;;5157488;27;20110;-76
2021/12/31 10:58:11;;;;;;;13.48;2.17;;;;;;;;;;5138897;27;20134;-75
2021/12/31 11:00:39;;;;;;;10.15;1.73;;;;;;;;;;5138819;27;20026;-76
2021/12/31 11:03:06;;;;;;;10.38;1.83;;;;;;;;;;5138536;27;20019;-75
2021/12/31 11:05:34;;;;;;;8.50;1.42;;;;;;;;;;5157193;27;20082;-75
2021/12/31 11:08:02;;;;;;;8.48;1.58;;;;;;;;;;5138323;27;20026;-75
2021/12/31 11:10:32;;;;;;;8.88;1.50;;;;;;;;;;5138690;27;20018;-75
2021/12/31 11:12:59;;;;;;;12.20;1.83;;;;;;;;;;5157216;27;20019;-75
2021/12/31 11:15:26;;;;;;;8.40;1.60;;;;;;;;;;5138565;27;20395;-75
2021/12/31 11:17:54;;;;;;;12.75;1.98;;;;;;;;;;5138300;27;20033;-76
2021/12/31 11:20:25;;;;;;;8.88;1.30;;;;;;;;;;5138377;27;20030;-75
2021/12/31 11:22:52;;;;;;;7.95;1.20;;;;;;;;;;5157088;27;20470;-75
2021/12/31 11:25:24;;;;;;;8.63;1.75;;;;;;;;;;5156925;27;20033;-75
2021/12/31 11:27:52;;;;;;;10.95;1.70;;;;;;;;;;5137174;27;20022;-74
2021/12/31 11:30:30;;;;;;;6.72;1.48;;;;;;;;;;5138325;27;20066;-75
2021/12/31 11:32:58;;;;;;;8.23;1.73;;;;;;;;;;5156906;27;20026;-75
2021/12/31 11:35:30;;;;;;;8.98;1.35;;;;;;;;;;5137947;27;20482;-74
2021/12/31 11:37:57;;;;;;;9.82;1.50;;;;;;;;;;5156863;27;20022;-75
2021/12/31 11:40:38;;;;;;;13.18;2.03;;;;;;;;;;5156773;27;20080;-75
2021/12/31 11:43:15;;;;;;;9.30;1.45;;;;;;;;;;5156739;27;20086;-76
2021/12/31 11:45:42;;;;;;;11.32;1.65;;;;;;;;;;5156692;27;20410;-75
2021/12/31 11:48:27;;;;;;;8.32;1.50;;;;;;;;;;5156537;27;20014;-75
2021/12/31 11:51:04;;;;;;;7.82;1.63;;;;;;;;;;5137975;27;20023;-75
2021/12/31 11:53:31;;;;;;;8.52;2.08;;;;;;;;;;5137364;27;20495;-75
2021/12/31 11:55:58;;;;;;;10.73;1.20;;;;;;;;;;5156433;27;20022;-74
2021/12/31 11:58:42;;;;;;;5.55;1.38;;;;;;;;;;5137542;27;20089;-74
2021/12/31 12:01:29;;;;;;;13.43;1.92;;;;;;;;;;5156277;27;20456;-75
2021/12/31 12:04:19;;;;;;;8.55;1.50;;;;;;;;;;5120392;27;20031;-75
2021/12/31 12:06:52;;;;;;;9.23;1.48;;;;;;;;;;5124784;27;20431;-74
2021/12/31 12:09:20;;;;;;;10.82;1.40;;;;;;;;;;5156157;27;20027;-75
2021/12/31 12:12:05;;;;;;;11.48;1.60;;;;;;;;;;5137485;27;20395;-75
2021/12/31 12:14:37;;;;;;;11.05;2.30;;;;;;;;;;5155988;27;20015;-74
2021/12/31 12:17:05;;;;;;;11.45;1.52;;;;;;;;;;5137230;27;20026;-74
2021/12/31 12:19:58;;;;;;;8.55;1.48;;;;;;;;;;5137046;27;20023;-75
2021/12/31 12:22:31;;;;;;;9.50;1.35;;;;;;;;;;5116861;27;20043;-75
2021/12/31 12:24:59;;;;;;;8.55;1.30;;;;;;;;;;5155703;27;20019;-75
2021/12/31 12:27:27;;;;;;;9.45;1.40;;;;;;;;;;5155698;27;20019;-75
2021/12/31 12:29:55;;;;;;;12.77;1.73;;;;;;;;;;5136808;27;20027;-75
2021/12/31 12:32:32;;;;;;;9.18;1.77;;;;;;;;;;5136554;27;20025;-75
2021/12/31 12:35:00;;;;;;;8.43;1.00;;;;;;;;;;5137040;27;20026;-73
2021/12/31 12:37:30;;;;;;;9.95;1.63;;;;;;;;;;5136575;27;20114;-74
2021/12/31 12:40:00;;;;;;;6.97;1.30;;;;;;;;;;5155498;27;20099;-74
2021/12/31 12:42:27;;;;;;;;;;;;;;;;;;5155855;27;20025;-74
2021/12/31 12:45:01;;;;;;;8.45;1.50;;;;;;;;;;5136991;27;19971;-74
2021/12/31 12:47:28;;;;;;;8.68;1.40;;;;;;;;;;5136584;27;20106;-74
2021/12/31 12:49:59;;;;;;;8.52;1.13;;;;;;;;;;5155474;27;20409;-74
2021/12/31 12:52:27;;;;;;;8.95;1.00;;;;;;;;;;5155339;27;20435;-74
2021/12/31 12:55:12;;;;;;;7.85;1.38;;;;;;;;;;5136446;27;20359;-74
2021/12/31 12:57:40;;;;;;;6.75;0.95;;;;;;;;;;5155418;27;20046;-74
2021/12/31 13:00:08;;;;;;;8.27;1.35;;;;;;;;;;5155292;27;20071;-74
2021/12/31 13:02:43;;;;;;;8.65;1.10;;;;;;;;;;5155271;27;20076;-74
2021/12/31 13:05:18;;;;;;;11.75;1.42;;;;;;;;;;5155120;27;20026;-74
2021/12/31 13:07:52;;;;;;;6.00;1.13;;;;;;;;;;5136565;27;20023;-75
2021/12/31 13:10:22;;;;;;;9.98;1.50;;;;;;;;;;5155161;27;20378;-74
2021/12/31 13:12:50;;;;;;;7.72;1.23;;;;;;;;;;5155876;27;20017;-74
2021/12/31 13:15:17;;;;;;;7.05;1.83;;;;;;;;;;5136451;27;20038;-74
2021/12/31 13:17:58;;;;;;;3.90;1.30;;;;;;;;;;5154929;27;20022;-74
2021/12/31 13:20:29;;;;;;;10.20;1.88;;;;;;;;;;5154990;27;20022;-74
2021/12/31 13:23:07;;;;;;;7.95;1.40;;;;;;;;;;5155060;27;20023;-74
2021/12/31 13:25:37;;;;;;;7.50;1.52;;;;;;;;;;5136176;27;20041;-74
2021/12/31 13:28:14;;;;;;;7.20;1.75;;;;;;;;;;5154868;27;20027;-73
2021/12/31 13:31:06;;;;;;;7.40;0.90;;;;;;;;;;5136168;27;20049;-74
2021/12/31 13:33:38;;;;;;;6.35;1.05;;;;;;;;;;5154606;27;20010;-74
2021/12/31 13:36:16;;;;;;;6.30;1.20;;;;;;;;;;5154433;27;20019;-74
2021/12/31 13:39:02;;;;;;;6.55;1.10;;;;;;;;;;5135975;27;20071;-74
2021/12/31 13:41:30;;;;;;;7.05;1.27;;;;;;;;;;5136008;27;20023;-75
2021/12/31 13:43:58;;;;;;;7.57;1.23;;;;;;;;;;5154772;27;20023;-74
2021/12/31 13:46:36;;;;;;;8.85;1.60;;;;;;;;;;5135703;27;20455;-73
2021/12/31 13:49:05;;;;;;;7.57;1.50;;;;;;;;;;5136040;27;20019;-73
2021/12/31 13:51:33;;;;;;;4.00;1.10;;;;;;;;;;5157042;27;20019;-73
2021/12/31 13:54:00;;;;;;;7.60;1.48;;;;;;;;;;5158529;27;20078;-74
2021/12/31 13:56:37;;;;;;;7.03;1.10;;;;;;;;;;5158672;27;20033;-74
2021/12/31 13:59:23;;;;;;;8.90;1.00;;;;;;;;;;5139694;27;20390;-73
2021/12/31 14:02:03;;;;;;;7.97;1.35;;;;;;;;;;5158489;27;20014;-74
2021/12/31 14:04:30;;;;;;;6.93;1.07;;;;;;;;;;5158641;27;20054;-74
2021/12/31 14:07:06;;;;;;;10.02;1.52;;;;;;;;;;5139509;27;20542;-74
2021/12/31 14:09:34;;;;;;;6.93;1.17;;;;;;;;;;5139976;27;20109;-74
2021/12/31 14:12:04;;;;;;;10.95;1.42;;;;;;;;;;5158288;27;20042;-74
2021/12/31 14:14:31;;;;;;;8.13;1.50;;;;;;;;;;5139418;27;20038;-73
2021/12/31 14:16:58;;;;;;;9.18;1.30;;;;;;;;;;5158277;27;20482;-74
2021/12/31 14:19:25;;;;;;;9.07;1.50;;;;;;;;;;5139296;27;20083;-74
2021/12/31 14:21:53;;;;;;;7.97;0.98;;;;;;;;;;5139638;27;20023;-74
2021/12/31 14:24:20;;;;;;;7.03;1.10;;;;;;;;;;5158027;27;20093;-74
2021/12/31 14:26:47;;;;;;;6.72;1.13;;;;;;;;;;5157958;27;20065;-74
2021/12/31 14:29:14;;;;;;;8.15;1.45;;;;;;;;;;5139062;27;20015;-74
2021/12/31 14:31:41;;;;;;;5.55;0.90;;;;;;;;;;5139132;27;20019;-74
2021/12/31 14:34:08;;;;;;;6.97;1.23;;;;;;;;;;5157997;27;20519;-74
2021/12/31 14:36:52;;;;;;;4.15;1.38;;;;;;;;;;5139313;27;20023;-74
2021/12/31 14:39:20;;;;;;;7.45;1.10;;;;;;;;;;5138929;27;20026;-74
2021/12/31 14:41:47;;;;;;;9.75;1.02;;;;;;;;;;5157882;27;20471;-74
2021/12/31 14:44:14;;;;;;;6.60;1.08;;;;;;;;;;5157840;27;20083;-74
2021/12/31 14:46:42;;;;;;;7.13;0.88;;;;;;;;;;5157499;27;20029;-74
2021/12/31 14:49:09;;;;;;;9.25;0.95;;;;;;;;;;5138704;27;20103;-74
2021/12/31 14:51:36;;;;;;;8.27;1.35;;;;;;;;;;5157561;27;20039;-74
2021/12/31 14:54:03;;;;;;;8.68;1.10;;;;;;;;;;5138866;27;20046;-73
2021/12/31 14:56:31;;;;;;;11.25;1.50;;;;;;;;;;5157506;27;20506;-73